Time;durP1;ratioP1;P1;durP2;ratioP2;P2;SDS_P1;SDS_P2;PMS_P1;PMS_P2;Temp;Humidity;BMP_temperature;BMP_pressure;BME280_temperature;BME280_humidity;BME280_pressure;Samples;Min_cycle;Max_cycle;Signal;HPM_P1;HPM_P2
2022/03/19 00:02:21;;;;;;;;;;;4.70;99.90;;;;;;4902165;29;25038;-83
2022/03/19 00:04:47;;;;;;;;;;;4.70;99.90;;;;;;4904862;29;20232;-82
2022/03/19 00:07:13;;;;;;;;;;;4.70;99.90;;;;;;4926901;29;19910;-82
2022/03/19 00:09:40;;;;;;;;;;;4.80;99.90;;;;;;4892138;29;19970;-82
2022/03/19 00:12:06;;;;;;;;;;;4.80;99.90;;;;;;4922475;29;21489;-81
2022/03/19 00:14:32;;;;;;;;;;;4.90;99.90;;;;;;4924981;28;19974;-84
2022/03/19 00:16:57;;;;;;;;;;;4.80;99.90;;;;;;4918091;29;19958;-84
2022/03/19 00:19:23;;;;;;;;;;;4.80;99.90;;;;;;4901721;28;19954;-82
2022/03/19 00:21:49;;;;;;;;;;;4.80;99.90;;;;;;4924470;28;20051;-83
2022/03/19 00:24:15;;;;;;;;;;;4.80;99.90;;;;;;4888520;29;19965;-81
2022/03/19 00:26:41;;;;;;;;;;;4.80;99.90;;;;;;4924299;29;20189;-81
2022/03/19 00:29:08;;;;;;;;;;;4.70;99.90;;;;;;4933152;28;19942;-83
2022/03/19 00:31:34;;;;;;;;;;;4.70;99.90;;;;;;4908218;28;19914;-82
2022/03/19 00:33:59;;;;;;;;;;;4.70;99.90;;;;;;4924788;28;20014;-84
2022/03/19 00:36:25;;;;;;;;;;;4.90;99.90;;;;;;4924046;29;19907;-84
2022/03/19 00:38:51;;;;;;;;;;;4.90;99.90;;;;;;4933411;29;20236;-83
2022/03/19 00:41:16;;;;;;;;;;;4.80;99.90;;;;;;4925403;29;19918;-82
2022/03/19 00:43:43;;;;;;;;;;;4.80;99.90;;;;;;4914928;29;19907;-83
2022/03/19 00:46:10;;;;;;;;;;;4.70;99.90;;;;;;4927354;28;20333;-83
2022/03/19 06:03:32;;;;;;;;;;;3.00;99.90;;;;;;5033797;23;20104;-84
2022/03/19 06:05:57;;;;;;;;;;;3.20;99.90;;;;;;4938754;29;19907;-82
2022/03/19 06:08:23;;;;;;;;;;;3.30;99.90;;;;;;4943651;29;19925;-84
2022/03/19 06:10:48;;;;;;;;;;;3.30;99.90;;;;;;4928335;29;19919;-82
2022/03/19 06:13:14;;;;;;;;;;;3.40;99.90;;;;;;4943293;29;19902;-81
2022/03/19 06:15:40;;;;;;;;;;;3.40;99.90;;;;;;4945931;29;19910;-81
2022/03/19 06:18:05;;;;;;;;;;;3.50;99.90;;;;;;4943864;29;19937;-80
2022/03/19 06:20:31;;;;;;;;;;;3.60;99.90;;;;;;4953256;29;19906;-84
2022/03/19 06:22:58;;;;;;;;;;;3.70;99.90;;;;;;4940892;29;19914;-81
2022/03/19 06:25:24;;;;;;;;;;;3.70;99.90;;;;;;4942521;29;19930;-83
2022/03/19 06:27:49;;;;;;;;;;;3.80;99.90;;;;;;4952887;29;19918;-82
2022/03/19 06:30:15;;;;;;;;;;;4.00;99.90;;;;;;4943689;29;19907;-81
2022/03/19 06:32:41;;;;;;;;;;;4.10;99.90;;;;;;4921748;29;20184;-85
2022/03/19 06:35:08;;;;;;;;;;;4.30;99.90;;;;;;4943918;29;20117;-83
2022/03/19 06:37:34;;;;;;;;;;;4.40;99.90;;;;;;4938074;29;19982;-83
2022/03/19 06:40:06;;;;;;;;;;;4.50;99.90;;;;;;4944370;29;19907;-81
2022/03/19 06:42:34;;;;;;;;;;;4.60;99.90;;;;;;4912745;29;19965;-83
2022/03/19 06:45:00;;;;;;;;;;;4.70;99.90;;;;;;4943170;29;19910;-83
2022/03/19 06:47:26;;;;;;;;;;;4.90;99.90;;;;;;4905502;29;19910;-83
2022/03/19 06:49:52;;;;;;;;;;;5.00;99.90;;;;;;4923057;29;19957;-85
2022/03/19 06:52:18;;;;;;;;;;;5.00;99.90;;;;;;4931107;29;19946;-82
2022/03/19 07:17:50;;;;;;;;;;;6.00;99.80;;;;;;4867127;29;19919;-83
2022/03/19 08:04:00;;;;;;;;;;;8.20;91.90;;;;;;5521231;23;19928;-79
2022/03/19 08:06:28;;;;;;;;;;;8.20;91.90;;;;;;4968940;28;19926;-82
2022/03/19 08:08:54;;;;;;;;;;;8.30;91.60;;;;;;4958223;28;20074;-80
2022/03/19 08:11:23;;;;;;;;;;;8.40;91.60;;;;;;4979269;28;19918;-81
2022/03/19 08:14:07;;;;;;;;;;;8.50;91.30;;;;;;4978384;28;19941;-81
2022/03/19 08:16:37;;;;;;;;;;;8.60;91.30;;;;;;4964763;28;19918;-83
2022/03/19 08:19:12;;;;;;;;;;;8.80;90.80;;;;;;4959941;28;19965;-79
2022/03/19 08:21:45;;;;;;;;;;;8.80;90.50;;;;;;4951857;28;19911;-80
2022/03/19 08:24:12;;;;;;;;;;;8.90;89.90;;;;;;4943768;28;19910;-80
2022/03/19 08:26:38;;;;;;;;;;;9.00;88.80;;;;;;4946083;28;19917;-80
2022/03/19 08:29:04;;;;;;;;;;;9.00;88.70;;;;;;4975632;28;19957;-79
2022/03/19 08:31:31;;;;;;;;;;;9.20;87.50;;;;;;4973477;28;19910;-81
2022/03/19 08:33:57;;;;;;;;;;;9.30;88.80;;;;;;4958152;28;19910;-82
2022/03/19 08:36:23;;;;;;;;;;;9.40;88.20;;;;;;4972586;28;20024;-83
2022/03/19 08:41:48;;;;;;;;;;;9.60;86.40;;;;;;4947417;28;19933;-80
2022/03/19 08:44:33;;;;;;;;;;;9.50;85.10;;;;;;4957676;28;19977;-83
2022/03/19 08:46:59;;;;;;;;;;;9.60;84.70;;;;;;4945894;28;19911;-83
2022/03/19 08:49:25;;;;;;;;;;;9.60;84.60;;;;;;4957775;28;20139;-81
2022/03/19 08:51:53;;;;;;;;;;;9.70;83.80;;;;;;4957677;28;19925;-82
2022/03/19 08:54:22;;;;;;;;;;;9.70;81.80;;;;;;4974003;28;19988;-84
2022/03/19 08:56:50;;;;;;;;;;;9.80;82.40;;;;;;4962552;28;19909;-83
2022/03/19 08:59:28;;;;;;;;;;;9.90;81.60;;;;;;5098120;27;19916;-81
2022/03/19 09:01:54;;;;;;;;;;;9.90;82.10;;;;;;5099923;28;19934;-82
2022/03/19 09:04:20;;;;;;;;;;;10.10;81.70;;;;;;5104480;28;20026;-80
2022/03/19 09:06:46;;;;;;;;;;;10.20;80.50;;;;;;5053896;28;19920;-80
2022/03/19 09:09:14;;;;;;;;;;;10.20;81.10;;;;;;5092939;28;19933;-80
2022/03/19 09:12:05;;;;;;;;;;;10.20;80.10;;;;;;5083972;28;19920;-80
2022/03/19 09:14:58;;;;;;;;;;;10.30;79.50;;;;;;5075606;28;20201;-82
2022/03/19 09:17:37;;;;;;;;;;;10.40;80.30;;;;;;5059714;28;19939;-80
2022/03/19 09:20:23;;;;;;;;;;;10.30;80.30;;;;;;5058429;28;20118;-83
2022/03/19 09:22:52;;;;;;;;;;;10.30;80.20;;;;;;5074258;28;19913;-81
2022/03/19 09:25:18;;;;;;;;;;;10.40;80.50;;;;;;5074559;28;19916;-81
2022/03/19 09:27:44;;;;;;;;;;;10.60;80.30;;;;;;5075277;28;20080;-82
2022/03/19 09:30:10;;;;;;;;;;;10.70;80.80;;;;;;5069895;28;19917;-82
2022/03/19 09:35:46;;;;;;;;;;;10.90;79.60;;;;;;5069328;28;19916;-79
2022/03/19 09:38:13;;;;;;;;;;;10.80;79.30;;;;;;5107515;28;19929;-80
2022/03/19 09:40:42;;;;;;;;;;;10.90;79.60;;;;;;5073906;28;20063;-81
2022/03/19 09:43:08;;;;;;;;;;;10.90;79.80;;;;;;5074309;28;19947;-80
2022/03/19 09:49:10;;;;;;;;;;;11.10;78.20;;;;;;5072464;28;20007;-81
2022/03/19 09:51:44;;;;;;;;;;;11.30;78.30;;;;;;5070209;28;20102;-81
2022/03/19 09:54:19;;;;;;;;;;;11.30;78.10;;;;;;5070536;28;19925;-79
2022/03/19 09:56:48;;;;;;;;;;;11.30;77.10;;;;;;5051760;28;19905;-81
2022/03/19 09:59:15;;;;;;;;;;;11.20;77.20;;;;;;5040448;28;19928;-83
2022/03/19 10:01:40;;;;;;;;;;;11.20;77.50;;;;;;5079115;28;19901;-82
2022/03/19 10:04:15;;;;;;;;;;;11.20;77.30;;;;;;5051729;28;20185;-79
2022/03/19 10:10:03;;;;;;;;;;;11.60;77.50;;;;;;5048242;28;19913;-79
2022/03/19 10:12:33;;;;;;;;;;;11.80;75.00;;;;;;5049240;28;19921;-79
2022/03/19 10:15:09;;;;;;;;;;;11.80;75.00;;;;;;5053299;28;19913;-79
2022/03/19 10:17:38;;;;;;;;;;;11.70;74.50;;;;;;5069122;28;19939;-81
2022/03/19 10:20:07;;;;;;;;;;;11.80;75.10;;;;;;5038589;28;19976;-81
2022/03/19 10:22:40;;;;;;;;;;;12.00;75.10;;;;;;5019167;28;20094;-80
2022/03/19 10:25:10;;;;;;;;;;;12.10;74.60;;;;;;5072914;28;19984;-79
2022/03/19 10:27:37;;;;;;;;;;;12.20;74.70;;;;;;5058600;28;19912;-79
2022/03/19 10:30:07;;;;;;;;;;;12.20;74.50;;;;;;5044263;28;20878;-80
2022/03/19 10:32:39;;;;;;;;;;;12.30;74.50;;;;;;5031771;28;19913;-81
2022/03/19 10:35:26;;;;;;;;;;;12.40;74.90;;;;;;5006774;28;19917;-81
2022/03/19 10:37:53;;;;;;;;;;;12.60;74.60;;;;;;5044711;28;19925;-81
2022/03/19 10:40:40;;;;;;;;;;;12.70;74.50;;;;;;5046572;28;19916;-80
2022/03/19 10:47:09;;;;;;;;;;;13.20;75.40;;;;;;5025603;28;19921;-82
2022/03/19 11:02:03;;;;;;;;;;;14.20;73.70;;;;;;6027538;23;19942;-81
2022/03/19 11:04:30;;;;;;;;;;;14.30;72.30;;;;;;4976871;28;20100;-82
2022/03/19 11:06:58;;;;;;;;;;;14.40;72.40;;;;;;4977807;28;19953;-81
2022/03/19 11:09:26;;;;;;;;;;;14.50;72.50;;;;;;4969145;28;19953;-80
2022/03/19 11:11:51;;;;;;;;;;;14.90;70.40;;;;;;4976043;28;20224;-81
2022/03/19 11:14:23;;;;;;;;;;;15.10;69.50;;;;;;4957500;28;19931;-83
2022/03/19 11:17:23;;;;;;;;;;;15.50;68.80;;;;;;4955804;28;20211;-79
2022/03/19 11:19:41;;;;;;;;;;;15.70;67.40;;;;;;4972205;28;19933;-80
2022/03/19 11:22:07;;;;;;;;;;;16.90;67.50;;;;;;4951969;28;19914;-82
2022/03/19 11:27:36;;;;;;;;;;;19.00;61.00;;;;;;4974405;28;19941;-81
2022/03/19 11:30:10;;;;;;;;;;;19.00;59.40;;;;;;4979052;28;19989;-81
2022/03/19 11:32:36;;;;;;;;;;;19.10;58.30;;;;;;4956420;28;20258;-81
2022/03/19 11:35:25;;;;;;;;;;;19.70;58.30;;;;;;4966464;28;19915;-81
2022/03/19 11:38:01;;;;;;;;;;;19.90;56.90;;;;;;4941845;28;19941;-81
2022/03/19 11:40:32;;;;;;;;;;;19.40;57.40;;;;;;4987648;28;19918;-81
2022/03/19 11:43:01;;;;;;;;;;;18.00;58.70;;;;;;4976477;28;20136;-82
2022/03/19 11:45:55;;;;;;;;;;;;;;;;;;;;;
2022/03/19 11:48:35;;;;;;;;;;;17.90;59.00;;;;;;4967283;28;20175;-79
2022/03/19 11:51:19;;;;;;;;;;;18.10;58.50;;;;;;4967284;28;19914;-83
2022/03/19 11:57:17;;;;;;;;;;;18.10;59.50;;;;;;4972114;28;19922;-81
2022/03/19 11:59:46;;;;;;;;;;;18.50;58.90;;;;;;4970580;28;19914;-82
2022/03/19 12:02:20;;;;;;;;;;;19.20;58.20;;;;;;4971966;28;19914;-82
2022/03/19 12:04:56;;;;;;;;;;;19.90;57.10;;;;;;4978453;28;19921;-82
2022/03/19 12:07:36;;;;;;;;;;;20.70;55.90;;;;;;4971795;28;19960;-83
2022/03/19 12:10:06;;;;;;;;;;;21.30;54.80;;;;;;4965489;28;24035;-81
2022/03/19 12:12:32;;;;;;;;;;;21.50;53.60;;;;;;4971966;28;20191;-82
2022/03/19 12:14:59;;;;;;;;;;;21.50;54.20;;;;;;4950246;28;20044;-83
2022/03/19 12:27:52;;;;;;;;;;;23.70;49.30;;;;;;4960900;28;20283;-81
2022/03/19 12:30:31;;;;;;;;;;;24.50;49.30;;;;;;4968066;28;19942;-81
2022/03/19 12:33:00;;;;;;;;;;;23.90;48.90;;;;;;4965970;28;20085;-82
2022/03/19 12:35:32;;;;;;;;;;;23.40;49.00;;;;;;4976169;28;19921;-80
2022/03/19 12:38:00;;;;;;;;;;;24.60;48.80;;;;;;4960931;28;20202;-82
2022/03/19 12:46:41;;;;;;;;;;;23.80;49.20;;;;;;4876862;29;19920;-82
2022/03/19 12:49:31;;;;;;;;;;;20.90;50.00;;;;;;4877172;29;19934;-79
2022/03/19 12:51:56;;;;;;;;;;;19.10;51.40;;;;;;4860308;29;20195;-78
2022/03/19 12:54:31;;;;;;;;;;;17.60;53.30;;;;;;4875233;29;19958;-80
2022/03/19 12:56:58;;;;;;;;;;;16.70;54.80;;;;;;4878443;29;19924;-78
2022/03/19 12:59:27;;;;;;;;;;;16.10;55.60;;;;;;4878660;29;19919;-84
2022/03/19 13:01:53;;;;;;;;;;;16.50;55.70;;;;;;4878413;29;20210;-77
2022/03/19 13:04:29;;;;;;;;;;;17.30;53.50;;;;;;4862006;29;19984;-81
2022/03/19 13:06:56;;;;;;;;;;;19.40;52.20;;;;;;4876398;29;20006;-79
2022/03/19 13:09:35;;;;;;;;;;;21.70;49.90;;;;;;4873816;29;19946;-80
2022/03/19 13:12:09;;;;;;;;;;;23.40;48.50;;;;;;4875018;29;19931;-81
2022/03/19 13:14:35;;;;;;;;;;;24.30;47.40;;;;;;4862110;29;19944;-79
2022/03/19 13:17:17;;;;;;;;;;;23.80;47.00;;;;;;4895053;28;20195;-80
2022/03/19 13:19:44;;;;;;;;;;;23.50;46.60;;;;;;4980842;28;19969;-80
2022/03/19 13:22:16;;;;;;;;;;;23.50;47.10;;;;;;4962826;28;19922;-78
2022/03/19 13:24:56;;;;;;;;;;;23.20;47.10;;;;;;4978503;28;19961;-79
2022/03/19 13:27:39;;;;;;;;;;;20.80;49.20;;;;;;4989532;28;19922;-82
2022/03/19 13:30:11;;;;;;;;;;;19.30;50.60;;;;;;4943028;28;19914;-80
2022/03/19 13:32:37;;;;;;;;;;;18.60;50.90;;;;;;4977146;28;19937;-76
2022/03/19 13:35:03;;;;;;;;;;;20.20;50.00;;;;;;4978381;28;19910;-83
2022/03/19 13:47:20;;;;;;;;;;;21.90;48.60;;;;;;5456323;22;20095;-84
2022/03/19 13:49:47;;;;;;;;;;;23.70;46.50;;;;;;5000363;28;20191;-84
2022/03/19 13:52:32;;;;;;;;;;;22.70;46.00;;;;;;4986045;28;19913;-83
2022/03/19 14:02:11;;;;;;;;;;;16.40;52.70;;;;;;5003157;28;20213;-86
2022/03/19 14:04:37;;;;;;;;;;;15.20;53.70;;;;;;4956598;28;19926;-87
2022/03/19 14:07:04;;;;;;;;;;;14.90;54.20;;;;;;4968968;28;19989;-87
2022/03/19 14:19:58;;;;;;;;;;;20.70;47.60;;;;;;4966768;28;19972;-83
2022/03/19 14:22:34;;;;;;;;;;;18.30;49.90;;;;;;4976213;28;19941;-87
2022/03/19 14:25:01;;;;;;;;;;;17.40;51.80;;;;;;4997684;28;19925;-84
2022/03/19 14:27:27;;;;;;;;;;;16.70;56.00;;;;;;4995698;28;19921;-85
2022/03/19 14:30:00;;;;;;;;;;;16.00;59.60;;;;;;4998686;28;20019;-85
2022/03/19 14:35:51;;;;;;;;;;;15.00;59.70;;;;;;4985904;28;19926;-85
2022/03/19 14:38:22;;;;;;;;;;;14.60;57.70;;;;;;4974395;28;19926;-86
2022/03/19 14:41:12;;;;;;;;;;;14.50;58.00;;;;;;4958821;28;19913;-85
2022/03/19 14:44:16;;;;;;;;;;;14.40;57.60;;;;;;4955251;28;20007;-85
2022/03/19 14:46:44;;;;;;;;;;;14.40;61.10;;;;;;4970526;28;19937;-85
2022/03/19 14:52:19;;;;;;;;;;;15.00;55.30;;;;;;4939412;28;20181;-84
2022/03/19 14:55:28;;;;;;;;;;;17.60;50.60;;;;;;4989403;28;19989;-85
2022/03/19 14:58:00;;;;;;;;;;;20.20;49.50;;;;;;4976483;28;20104;-84
2022/03/19 15:32:50;;;;;;;;;;;17.60;50.40;;;;;;5138978;23;19929;-83
2022/03/19 15:35:41;;;;;;;;;;;16.60;53.30;;;;;;4986984;28;20150;-83
2022/03/19 15:38:10;;;;;;;;;;;15.00;58.50;;;;;;4986239;28;19932;-82
2022/03/19 15:40:36;;;;;;;;;;;14.30;62.10;;;;;;5010414;28;19916;-84
2022/03/19 15:43:07;;;;;;;;;;;13.70;64.90;;;;;;5022762;28;19913;-83
2022/03/19 16:02:26;;;;;;;;;;;12.40;69.00;;;;;;3286430;26;21209;-85
2022/03/19 16:05:05;;;;;;;;;;;13.40;68.10;;;;;;4966584;28;19914;-84
2022/03/19 16:07:31;;;;;;;;;;;15.00;64.80;;;;;;4963826;28;19992;-85
2022/03/19 16:10:33;;;;;;;;;;;16.20;62.80;;;;;;4984284;28;19914;-85
2022/03/19 16:17:25;;;;;;;;;;;14.90;62.70;;;;;;4946732;28;19963;-85
2022/03/19 16:21:03;;;;;;;;;;;15.70;62.70;;;;;;5002177;28;19936;-84
2022/03/19 16:23:49;;;;;;;;;;;17.20;58.40;;;;;;4965111;28;19972;-84
2022/03/19 16:26:23;;;;;;;;;;;18.00;56.60;;;;;;4933932;28;19961;-87
2022/03/19 16:29:13;;;;;;;;;;;18.60;54.40;;;;;;4981305;28;19917;-86
2022/03/19 16:32:10;;;;;;;;;;;18.80;55.50;;;;;;4971283;28;19973;-84
2022/03/19 16:41:28;;;;;;;;;;;16.50;58.70;;;;;;4964356;28;19925;-84
2022/03/19 16:43:59;;;;;;;;;;;14.80;63.70;;;;;;5018207;28;19913;-85
2022/03/19 16:46:26;;;;;;;;;;;13.20;68.70;;;;;;4952373;28;20183;-86
2022/03/19 16:48:53;;;;;;;;;;;12.30;71.10;;;;;;5012264;28;20180;-82
2022/03/19 16:51:41;;;;;;;;;;;11.70;72.80;;;;;;5038007;28;19940;-85
2022/03/19 16:54:06;;;;;;;;;;;11.20;74.00;;;;;;5022888;28;20012;-83
2022/03/19 16:56:32;;;;;;;;;;;11.00;74.80;;;;;;5016456;28;20368;-83
2022/03/19 16:58:58;;;;;;;;;;;10.70;75.30;;;;;;5022030;28;19914;-84
2022/03/19 17:01:24;;;;;;;;;;;10.50;76.00;;;;;;5006102;28;19964;-83
2022/03/19 17:03:50;;;;;;;;;;;10.50;77.00;;;;;;5012953;28;19925;-81
2022/03/19 17:06:15;;;;;;;;;;;10.50;76.10;;;;;;5013859;28;19907;-81
2022/03/19 17:15:29;;;;;;;;;;;9.80;78.50;;;;;;5010155;28;20001;-85
2022/03/19 17:17:57;;;;;;;;;;;9.50;79.90;;;;;;5032159;28;19917;-87
2022/03/19 17:20:23;;;;;;;;;;;9.40;80.60;;;;;;5053749;28;19916;-83
2022/03/19 17:22:49;;;;;;;;;;;9.40;81.20;;;;;;5034947;28;19913;-84
2022/03/19 17:25:16;;;;;;;;;;;9.20;80.80;;;;;;5026642;28;19920;-84
2022/03/19 17:27:41;;;;;;;;;;;9.10;81.50;;;;;;5031542;28;19917;-85
2022/03/19 17:30:10;;;;;;;;;;;9.10;82.40;;;;;;5030263;28;20236;-87
2022/03/19 17:32:37;;;;;;;;;;;9.00;82.40;;;;;;5050198;28;19912;-86
2022/03/19 17:35:03;;;;;;;;;;;9.00;82.20;;;;;;5036643;28;20147;-85
2022/03/19 17:37:29;;;;;;;;;;;8.90;82.30;;;;;;5034071;28;20210;-84
2022/03/19 17:39:55;;;;;;;;;;;8.70;82.50;;;;;;5026841;28;19912;-85
2022/03/19 17:42:23;;;;;;;;;;;8.60;82.50;;;;;;5051777;28;20102;-84
2022/03/19 17:44:48;;;;;;;;;;;8.60;83.10;;;;;;5059465;28;19951;-86
2022/03/19 17:47:14;;;;;;;;;;;8.60;82.90;;;;;;5017691;28;19959;-87
2022/03/19 17:49:40;;;;;;;;;;;8.60;83.20;;;;;;5048775;28;19954;-84
2022/03/19 17:55:51;;;;;;;;;;;8.40;84.30;;;;;;4887715;29;19994;-84
2022/03/19 18:35:35;;;;;;;15.55;9.77;;;7.60;88.00;;;;;;5528732;22;16269100;-85
2022/03/19 19:51:36;;;;;;;22.25;12.80;;;6.90;90.50;;;;;;6214294;22;20063;-88
2022/03/19 20:12:04;;;;;;;20.95;13.35;;;6.30;91.10;;;;;;6211225;23;20039;-84
2022/03/19 20:18:57;;;;;;;23.20;14.17;;;6.10;91.40;;;;;;6066360;23;20019;-84
2022/03/19 20:29:59;;;;;;;22.65;14.13;;;5.70;92.40;;;;;;6045394;23;20042;-83
2022/03/19 20:32:42;;;;;;;21.70;14.37;;;5.50;92.60;;;;;;5958853;23;20038;-83
2022/03/19 20:35:32;;;;;;;;;;;;;;;;;;;;;
2022/03/19 20:38:07;;;;;;;21.83;14.20;;;5.30;93.10;;;;;;6015557;23;20064;-84
2022/03/19 20:43:43;;;;;;;24.60;14.93;;;5.20;93.40;;;;;;6015520;23;20202;-82
2022/03/19 20:47:00;;;;;;;26.83;15.43;;;5.10;93.40;;;;;;5974731;23;20035;-83
2022/03/19 21:23:00;;;;;;;25.17;14.90;;;4.60;94.20;;;;;;6211608;22;20465;-83
2022/03/19 21:26:09;;;;;;;27.75;16.42;;;4.60;94.20;;;;;;6185940;23;20082;-83
2022/03/19 21:28:57;;;;;;;24.63;16.85;;;4.60;94.30;;;;;;6200420;23;20011;-86
2022/03/19 21:41:56;;;;;;;29.23;17.85;;;4.60;93.20;;;;;;6252629;22;20004;-86
2022/03/19 21:45:51;;;;;;;30.58;18.63;;;4.60;93.20;;;;;;6072569;23;20026;-86
2022/03/19 22:44:56;;;;;;;31.77;16.65;;;4.60;90.00;;;;;;6225905;22;20423;-85
2022/03/19 23:12:26;;;;;;;29.17;17.73;;;4.50;90.00;;;;;;6212893;22;20020;-80
